createdAt,value
2019-02-21T01:07:51.639Z,6.10
2019-02-21T03:25:06.748Z,6.50
2019-02-21T03:31:02.039Z,6.30
2019-02-21T03:33:46.489Z,6.20
2019-02-21T03:36:52.217Z,6.20
2019-02-21T03:39:36.602Z,6.00
2019-02-21T03:42:56.689Z,6.00
2019-02-21T03:48:43.708Z,5.80
2019-02-21T03:51:49.022Z,5.70
2019-02-21T03:54:43.116Z,5.70
2019-02-21T04:42:19.571Z,5.30
2019-02-21T04:45:07.123Z,5.30
2019-02-21T04:47:52.294Z,5.30
2019-02-21T05:00:56.700Z,5.40
2019-02-21T05:51:41.659Z,5.00
2019-02-21T05:53:10.852Z,5.00
2019-02-21T05:55:51.415Z,5.00
2019-02-21T05:58:47.136Z,5.00
2019-02-21T06:01:23.694Z,5.00
2019-02-21T06:04:08.314Z,5.00
2019-02-21T06:07:20.976Z,5.10
2019-02-21T06:10:42.815Z,5.10
2019-02-21T06:13:45.155Z,5.20
2019-02-21T06:17:22.414Z,5.20
2019-02-21T06:23:42.945Z,5.20
2019-02-21T06:27:28.995Z,5.20
2019-02-21T06:30:44.224Z,5.20
2019-02-21T06:33:44.846Z,5.20
2019-02-21T06:35:58.269Z,5.20
2019-02-21T06:38:38.273Z,5.10
2019-02-21T06:48:21.672Z,5.10
2019-02-21T06:50:31.055Z,5.20
2019-02-21T06:52:59.398Z,5.20
2019-02-21T06:55:23.735Z,5.20
2019-02-21T06:57:38.120Z,5.20
2019-02-21T06:59:58.039Z,5.30
2019-02-21T07:02:13.693Z,5.40
2019-02-21T07:04:22.910Z,5.40
2019-02-21T07:06:32.572Z,5.50
2019-02-21T07:08:56.337Z,5.50
2019-02-21T07:11:08.962Z,5.50
2019-02-21T07:13:26.752Z,5.60
2019-02-21T07:15:55.338Z,5.70
2019-02-21T07:18:14.309Z,5.70
2019-02-21T07:20:24.654Z,5.80
2019-02-21T07:22:42.476Z,5.90
2019-02-21T07:25:17.073Z,6.00
2019-02-21T07:27:25.104Z,6.30
2019-02-21T07:31:54.124Z,6.60
2019-02-21T07:36:51.129Z,7.00
2019-02-21T07:39:23.239Z,7.20
2019-02-21T07:41:34.062Z,7.30
2019-02-21T07:43:51.888Z,7.50
2019-02-21T07:46:06.851Z,7.60
2019-02-21T07:52:01.050Z,7.80
2019-02-21T07:55:02.098Z,8.00
2019-02-21T07:58:35.704Z,8.10
2019-02-21T08:01:18.814Z,8.30
2019-02-21T08:20:58.066Z,9.20
2019-02-21T08:33:59.300Z,9.20
2019-02-21T08:50:38.517Z,9.70
2019-02-21T08:53:12.996Z,9.70
2019-02-21T08:55:45.114Z,9.80
2019-02-21T08:58:02.895Z,9.80
2019-02-21T09:00:27.655Z,9.80
2019-02-21T09:02:54.575Z,9.90
2019-02-21T09:05:18.803Z,10.00
2019-02-21T09:14:58.962Z,10.30
2019-02-21T09:18:30.817Z,10.40
2019-02-21T09:30:54.843Z,10.10
2019-02-21T09:34:29.415Z,10.00
2019-02-21T09:43:01.935Z,10.40
2019-02-21T09:46:00.023Z,10.40
2019-02-21T09:52:04.154Z,10.60
2019-02-21T09:54:53.525Z,10.70
2019-02-21T09:57:25.465Z,10.70
2019-02-21T09:59:39.448Z,10.80
2019-02-21T10:02:23.065Z,11.00
2019-02-21T10:09:22.825Z,11.40
2019-02-21T10:11:32.992Z,11.60
2019-02-21T10:14:21.614Z,11.70
2019-02-21T11:30:19.835Z,14.40
2019-02-21T11:35:06.184Z,14.20
2019-02-21T11:37:15.964Z,13.90
2019-02-21T11:43:04.903Z,13.60
2019-02-21T11:46:32.187Z,13.30
2019-02-21T11:52:33.353Z,13.20
2019-02-21T12:02:25.628Z,13.70
2019-02-21T12:06:03.511Z,13.80
2019-02-21T12:30:24.690Z,14.40
2019-02-21T12:36:25.397Z,14.40
2019-02-21T12:42:28.179Z,14.40
2019-02-21T12:47:49.037Z,14.40
2019-02-21T12:52:22.154Z,14.40
2019-02-21T12:55:12.400Z,14.40
2019-02-21T12:58:13.049Z,14.30
2019-02-21T13:00:28.087Z,14.30
2019-02-21T13:03:18.609Z,14.40
2019-02-21T13:09:11.837Z,14.50
2019-02-21T13:12:15.263Z,14.50
2019-02-21T13:14:51.808Z,14.50
2019-02-21T13:16:56.347Z,14.60
2019-02-21T13:19:20.405Z,14.70
2019-02-21T13:21:25.210Z,14.70
2019-02-21T13:23:45.638Z,14.80
2019-02-21T13:33:51.249Z,15.20
2019-02-21T13:36:20.774Z,15.30
2019-02-21T13:38:12.016Z,15.30
2019-02-21T13:40:25.491Z,15.20
2019-02-21T13:43:29.893Z,15.20
2019-02-21T13:45:49.859Z,15.10
2019-02-21T13:48:09.404Z,15.10
2019-02-21T13:50:34.363Z,15.00
2019-02-21T13:53:06.729Z,14.90
2019-02-21T14:36:16.878Z,14.00
2019-02-21T15:36:38.202Z,13.50
2019-02-21T15:46:22.903Z,13.30
2019-02-21T16:38:00.933Z,12.60
2019-02-21T17:26:49.059Z,11.90
2019-02-21T17:28:56.114Z,11.90
2019-02-21T17:31:07.752Z,11.90
2019-02-21T17:33:25.878Z,11.90
2019-02-21T17:35:30.116Z,11.90
2019-02-21T17:37:34.190Z,11.90
2019-02-21T17:39:38.320Z,11.90
2019-02-21T17:41:48.510Z,11.90
2019-02-21T17:43:59.082Z,11.80
2019-02-21T17:46:09.859Z,11.80
2019-02-21T17:48:10.380Z,11.80
2019-02-21T17:50:15.157Z,11.80
2019-02-21T17:52:29.735Z,11.70
2019-02-21T17:54:35.322Z,11.70
2019-02-21T17:56:52.381Z,11.70
2019-02-21T17:58:58.130Z,11.70
2019-02-21T18:01:10.477Z,11.70
2019-02-21T18:03:18.680Z,11.70
2019-02-21T18:07:59.282Z,11.70
2019-02-21T18:10:03.726Z,11.70
2019-02-21T18:12:22.704Z,11.70
2019-02-21T18:14:33.491Z,11.70
2019-02-21T18:16:48.050Z,11.70
2019-02-21T18:18:52.453Z,11.70
2019-02-21T18:21:13.558Z,11.70
2019-02-21T18:23:26.946Z,11.70
2019-02-21T18:25:38.459Z,11.70
2019-02-21T18:27:48.392Z,11.70
2019-02-21T18:29:56.987Z,11.60
2019-02-21T18:32:14.310Z,11.60
2019-02-21T18:34:33.909Z,11.50
2019-02-21T18:36:51.313Z,11.50
2019-02-21T18:39:00.774Z,11.50
2019-02-21T18:41:07.478Z,11.40
2019-02-21T18:43:15.034Z,11.40
2019-02-21T18:45:31.285Z,11.40
2019-02-21T18:47:57.144Z,11.40
2019-02-21T18:50:11.495Z,11.30
2019-02-21T18:52:20.475Z,11.30
2019-02-21T18:54:39.511Z,11.30
2019-02-21T18:56:54.304Z,11.30
2019-02-21T18:59:18.325Z,11.30
2019-02-21T19:01:46.401Z,11.20
2019-02-21T19:04:12.764Z,11.20
2019-02-21T19:06:28.155Z,11.20
2019-02-21T19:20:53.929Z,11.20
2019-02-21T19:23:36.888Z,11.20
2019-02-21T19:29:20.734Z,11.10
2019-02-21T19:32:10.632Z,11.20
2019-02-21T19:41:26.582Z,11.20
2019-02-21T19:47:25.682Z,11.10
2019-02-21T20:16:01.363Z,10.90
2019-02-21T20:18:25.128Z,10.90
2019-02-21T20:22:48.443Z,10.90
2019-02-21T20:26:22.184Z,10.90
2019-02-21T20:32:18.460Z,10.90
2019-02-21T20:39:23.190Z,10.90
2019-02-21T20:52:51.756Z,10.80
2019-02-21T20:58:41.388Z,10.80
2019-02-21T21:00:58.302Z,10.80
2019-02-21T21:03:20.643Z,10.80
2019-02-21T21:05:43.814Z,10.80
2019-02-21T21:08:11.338Z,10.80
2019-02-21T21:10:31.830Z,10.80
2019-02-21T21:13:07.050Z,10.80
2019-02-21T21:15:36.515Z,10.80
2019-02-21T21:18:14.522Z,10.70
2019-02-21T21:20:31.597Z,10.70
2019-02-21T21:22:51.341Z,10.70
2019-02-21T21:25:03.722Z,10.60
2019-02-21T21:31:07.581Z,10.60
2019-02-21T21:33:17.702Z,10.60
2019-02-21T21:38:23.682Z,10.50
2019-02-21T21:40:46.716Z,10.60
2019-02-21T21:43:33.956Z,10.60
2019-02-21T21:46:18.030Z,10.60
2019-02-21T21:48:51.333Z,10.50
2019-02-21T21:51:59.718Z,10.50
2019-02-21T21:54:56.825Z,10.50
2019-02-21T21:57:15.058Z,10.50
2019-02-21T21:59:35.049Z,10.60
2019-02-21T22:02:09.637Z,10.60
2019-02-21T22:04:52.266Z,10.60
2019-02-21T22:07:37.363Z,10.60
2019-02-21T22:10:08.212Z,10.50
2019-02-21T22:13:13.184Z,10.50
2019-02-21T22:15:57.719Z,10.50
2019-02-21T22:19:03.079Z,10.50
2019-02-21T22:21:44.027Z,10.50
2019-02-21T22:24:13.250Z,10.50
2019-02-21T22:26:49.771Z,10.60
2019-02-21T22:29:11.274Z,10.60
2019-02-21T22:31:58.862Z,10.50
2019-02-21T22:34:57.985Z,10.60
2019-02-21T22:37:39.361Z,10.60
2019-02-21T22:40:17.384Z,10.60
2019-02-21T22:43:09.955Z,10.50
2019-02-21T22:46:02.472Z,10.50
2019-02-21T22:48:46.984Z,10.50
2019-02-21T22:51:21.995Z,10.60
2019-02-21T22:53:54.398Z,10.50
2019-02-21T22:56:41.300Z,10.50
2019-02-21T22:59:26.077Z,10.50
2019-02-21T23:01:55.068Z,10.60
2019-02-21T23:04:44.487Z,10.60
2019-02-21T23:08:15.955Z,10.60
2019-02-21T23:10:31.780Z,10.50
2019-02-21T23:13:29.400Z,10.50
2019-02-21T23:16:10.992Z,10.50
2019-02-21T23:19:08.002Z,10.50
2019-02-21T23:22:03.017Z,10.50
2019-02-21T23:24:20.586Z,10.50
2019-02-21T23:27:08.673Z,10.40
2019-02-21T23:29:51.987Z,10.40
2019-02-21T23:42:35.954Z,10.40
2019-02-21T23:44:40.103Z,10.40
2019-02-21T23:46:45.381Z,10.40
2019-02-21T23:48:52.309Z,10.40
2019-02-21T23:51:08.540Z,10.40
2019-02-21T23:53:14.387Z,10.40
2019-02-21T23:55:26.431Z,10.40
